sensor_id;sensor_type;location;lat;lon;timestamp;P1;durP1;ratioP1;P2;durP2;ratioP2
44272;SDS011;29964;17.182;-96.766;2023-11-21T00:00:13;2.28;;;1.38;;
44272;SDS011;29964;17.182;-96.766;2023-11-21T00:02:40;1.88;;;1.20;;
44272;SDS011;29964;17.182;-96.766;2023-11-21T00:05:08;1.25;;;1.08;;
44272;SDS011;29964;17.182;-96.766;2023-11-21T00:07:36;3.33;;;0.95;;
44272;SDS011;29964;17.182;-96.766;2023-11-21T00:10:03;2.40;;;1.10;;
44272;SDS011;29964;17.182;-96.766;2023-11-21T00:12:33;1.15;;;0.85;;
44272;SDS011;29964;17.182;-96.766;2023-11-21T00:15:00;8.00;;;3.50;;
44272;SDS011;29964;17.182;-96.766;2023-11-21T00:17:27;2.90;;;1.70;;
44272;SDS011;29964;17.182;-96.766;2023-11-21T00:19:54;4.45;;;2.22;;
44272;SDS011;29964;17.182;-96.766;2023-11-21T00:22:21;3.63;;;2.55;;
44272;SDS011;29964;17.182;-96.766;2023-11-21T00:24:47;7.43;;;3.13;;
44272;SDS011;29964;17.182;-96.766;2023-11-21T00:27:14;3.60;;;1.77;;
44272;SDS011;29964;17.182;-96.766;2023-11-21T00:29:41;3.10;;;1.90;;
44272;SDS011;29964;17.182;-96.766;2023-11-21T00:32:07;2.90;;;1.15;;
44272;SDS011;29964;17.182;-96.766;2023-11-21T00:34:34;3.38;;;1.30;;
44272;SDS011;29964;17.182;-96.766;2023-11-21T00:37:01;4.10;;;1.77;;
44272;SDS011;29964;17.182;-96.766;2023-11-21T00:39:28;1.13;;;1.00;;
44272;SDS011;29964;17.182;-96.766;2023-11-21T00:41:54;1.75;;;1.10;;
44272;SDS011;29964;17.182;-96.766;2023-11-21T00:44:21;1.27;;;1.05;;
44272;SDS011;29964;17.182;-96.766;2023-11-21T00:46:48;1.30;;;0.98;;
44272;SDS011;29964;17.182;-96.766;2023-11-21T00:49:16;2.75;;;1.27;;
44272;SDS011;29964;17.182;-96.766;2023-11-21T00:51:43;4.38;;;1.67;;
44272;SDS011;29964;17.182;-96.766;2023-11-21T00:54:19;1.83;;;1.00;;
44272;SDS011;29964;17.182;-96.766;2023-11-21T00:56:46;1.65;;;1.10;;
44272;SDS011;29964;17.182;-96.766;2023-11-21T00:59:13;1.48;;;1.10;;
44272;SDS011;29964;17.182;-96.766;2023-11-21T01:01:40;2.00;;;1.33;;
44272;SDS011;29964;17.182;-96.766;2023-11-21T01:04:06;1.70;;;1.08;;
44272;SDS011;29964;17.182;-96.766;2023-11-21T01:06:33;1.42;;;1.02;;
44272;SDS011;29964;17.182;-96.766;2023-11-21T01:09:00;1.20;;;0.80;;
44272;SDS011;29964;17.182;-96.766;2023-11-21T01:11:26;4.10;;;1.57;;
44272;SDS011;29964;17.182;-96.766;2023-11-21T01:13:53;2.63;;;1.17;;
44272;SDS011;29964;17.182;-96.766;2023-11-21T01:16:20;1.93;;;1.30;;
44272;SDS011;29964;17.182;-96.766;2023-11-21T01:18:46;1.43;;;0.97;;
44272;SDS011;29964;17.182;-96.766;2023-11-21T01:21:13;0.83;;;0.73;;
44272;SDS011;29964;17.182;-96.766;2023-11-21T01:23:39;2.30;;;1.37;;
44272;SDS011;29964;17.182;-96.766;2023-11-21T01:26:06;29.17;;;2.00;;
44272;SDS011;29964;17.182;-96.766;2023-11-21T01:28:38;2.57;;;1.60;;
44272;SDS011;29964;17.182;-96.766;2023-11-21T01:31:06;1.07;;;0.87;;
44272;SDS011;29964;17.182;-96.766;2023-11-21T01:33:32;1.40;;;0.97;;
44272;SDS011;29964;17.182;-96.766;2023-11-21T01:35:59;1.30;;;0.90;;
44272;SDS011;29964;17.182;-96.766;2023-11-21T01:38:25;1.07;;;0.87;;
44272;SDS011;29964;17.182;-96.766;2023-11-21T01:40:52;1.47;;;1.13;;
44272;SDS011;29964;17.182;-96.766;2023-11-21T01:43:19;1.10;;;0.80;;
44272;SDS011;29964;17.182;-96.766;2023-11-21T01:45:45;1.50;;;1.03;;
44272;SDS011;29964;17.182;-96.766;2023-11-21T01:48:12;2.00;;;1.20;;
44272;SDS011;29964;17.182;-96.766;2023-11-21T01:50:41;2.73;;;0.93;;
44272;SDS011;29964;17.182;-96.766;2023-11-21T01:53:08;1.67;;;0.97;;
44272;SDS011;29964;17.182;-96.766;2023-11-21T01:55:35;1.60;;;0.93;;
44272;SDS011;29964;17.182;-96.766;2023-11-21T01:58:01;1.83;;;1.03;;
44272;SDS011;29964;17.182;-96.766;2023-11-21T02:00:28;8.80;;;1.50;;
44272;SDS011;29964;17.182;-96.766;2023-11-21T02:02:55;2.77;;;1.20;;
44272;SDS011;29964;17.182;-96.766;2023-11-21T02:05:22;4.00;;;1.73;;
44272;SDS011;29964;17.182;-96.766;2023-11-21T02:07:48;1.97;;;1.30;;
44272;SDS011;29964;17.182;-96.766;2023-11-21T02:10:17;2.10;;;1.37;;
44272;SDS011;29964;17.182;-96.766;2023-11-21T02:12:51;2.33;;;1.43;;
44272;SDS011;29964;17.182;-96.766;2023-11-21T02:15:18;2.70;;;1.53;;
44272;SDS011;29964;17.182;-96.766;2023-11-21T02:17:51;1.95;;;1.33;;
44272;SDS011;29964;17.182;-96.766;2023-11-21T02:20:20;2.83;;;1.63;;
44272;SDS011;29964;17.182;-96.766;2023-11-21T02:25:21;1.13;;;0.90;;
44272;SDS011;29964;17.182;-96.766;2023-11-21T02:27:48;1.63;;;1.23;;
44272;SDS011;29964;17.182;-96.766;2023-11-21T02:30:15;1.87;;;1.10;;
44272;SDS011;29964;17.182;-96.766;2023-11-21T02:32:41;2.20;;;1.43;;
44272;SDS011;29964;17.182;-96.766;2023-11-21T02:35:08;2.17;;;1.40;;
44272;SDS011;29964;17.182;-96.766;2023-11-21T02:37:37;2.33;;;1.07;;
44272;SDS011;29964;17.182;-96.766;2023-11-21T02:40:04;4.03;;;1.60;;
44272;SDS011;29964;17.182;-96.766;2023-11-21T02:42:31;2.87;;;1.50;;
44272;SDS011;29964;17.182;-96.766;2023-11-21T02:44:58;2.67;;;1.70;;
44272;SDS011;29964;17.182;-96.766;2023-11-21T02:47:25;2.33;;;1.20;;
44272;SDS011;29964;17.182;-96.766;2023-11-21T02:49:51;1.57;;;1.03;;
44272;SDS011;29964;17.182;-96.766;2023-11-21T02:52:18;1.53;;;1.03;;
44272;SDS011;29964;17.182;-96.766;2023-11-21T02:54:45;5.63;;;2.10;;
44272;SDS011;29964;17.182;-96.766;2023-11-21T02:57:11;2.57;;;1.57;;
44272;SDS011;29964;17.182;-96.766;2023-11-21T02:59:38;3.07;;;1.30;;
44272;SDS011;29964;17.182;-96.766;2023-11-21T03:02:05;2.47;;;1.70;;
44272;SDS011;29964;17.182;-96.766;2023-11-21T03:04:33;2.77;;;1.53;;
44272;SDS011;29964;17.182;-96.766;2023-11-21T03:07:00;4.10;;;1.60;;
44272;SDS011;29964;17.182;-96.766;2023-11-21T03:09:27;2.27;;;1.57;;
44272;SDS011;29964;17.182;-96.766;2023-11-21T03:11:54;2.27;;;1.63;;
44272;SDS011;29964;17.182;-96.766;2023-11-21T03:14:20;3.00;;;1.90;;
44272;SDS011;29964;17.182;-96.766;2023-11-21T03:16:47;4.03;;;2.07;;
44272;SDS011;29964;17.182;-96.766;2023-11-21T03:19:14;2.20;;;1.30;;
44272;SDS011;29964;17.182;-96.766;2023-11-21T03:21:41;10.57;;;1.63;;
44272;SDS011;29964;17.182;-96.766;2023-11-21T03:24:08;3.63;;;1.53;;
44272;SDS011;29964;17.182;-96.766;2023-11-21T03:26:34;1.67;;;1.33;;
44272;SDS011;29964;17.182;-96.766;2023-11-21T03:29:02;2.70;;;1.77;;
44272;SDS011;29964;17.182;-96.766;2023-11-21T03:31:30;2.73;;;1.83;;
44272;SDS011;29964;17.182;-96.766;2023-11-21T03:33:57;2.93;;;1.50;;
44272;SDS011;29964;17.182;-96.766;2023-11-21T03:36:23;3.93;;;1.90;;
44272;SDS011;29964;17.182;-96.766;2023-11-21T03:38:50;1.20;;;0.87;;
44272;SDS011;29964;17.182;-96.766;2023-11-21T03:41:17;2.50;;;1.67;;
44272;SDS011;29964;17.182;-96.766;2023-11-21T03:43:44;10.37;;;1.50;;
44272;SDS011;29964;17.182;-96.766;2023-11-21T03:46:10;4.17;;;2.00;;
44272;SDS011;29964;17.182;-96.766;2023-11-21T03:48:38;3.43;;;1.73;;
44272;SDS011;29964;17.182;-96.766;2023-11-21T03:51:04;2.60;;;1.63;;
44272;SDS011;29964;17.182;-96.766;2023-11-21T03:53:31;3.93;;;1.80;;
44272;SDS011;29964;17.182;-96.766;2023-11-21T03:55:58;2.17;;;1.33;;
44272;SDS011;29964;17.182;-96.766;2023-11-21T03:58:24;7.23;;;1.40;;
44272;SDS011;29964;17.182;-96.766;2023-11-21T04:00:51;18.57;;;1.90;;
44272;SDS011;29964;17.182;-96.766;2023-11-21T04:03:19;2.77;;;1.93;;
44272;SDS011;29964;17.182;-96.766;2023-11-21T04:05:45;1.37;;;1.03;;
44272;SDS011;29964;17.182;-96.766;2023-11-21T04:08:12;3.77;;;1.73;;
44272;SDS011;29964;17.182;-96.766;2023-11-21T04:10:39;10.83;;;2.10;;
44272;SDS011;29964;17.182;-96.766;2023-11-21T04:13:07;2.87;;;1.47;;
44272;SDS011;29964;17.182;-96.766;2023-11-21T04:15:34;0.83;;;0.80;;
44272;SDS011;29964;17.182;-96.766;2023-11-21T04:18:00;2.83;;;1.80;;
44272;SDS011;29964;17.182;-96.766;2023-11-21T04:20:27;2.43;;;1.60;;
44272;SDS011;29964;17.182;-96.766;2023-11-21T04:22:53;2.00;;;1.37;;
44272;SDS011;29964;17.182;-96.766;2023-11-21T04:25:20;3.97;;;1.60;;
44272;SDS011;29964;17.182;-96.766;2023-11-21T04:27:48;3.13;;;1.87;;
44272;SDS011;29964;17.182;-96.766;2023-11-21T04:30:15;4.17;;;1.80;;
44272;SDS011;29964;17.182;-96.766;2023-11-21T04:32:42;2.93;;;1.63;;
44272;SDS011;29964;17.182;-96.766;2023-11-21T04:35:09;4.87;;;1.77;;
44272;SDS011;29964;17.182;-96.766;2023-11-21T04:37:35;2.50;;;1.60;;
44272;SDS011;29964;17.182;-96.766;2023-11-21T04:40:02;1.13;;;1.00;;
44272;SDS011;29964;17.182;-96.766;2023-11-21T04:42:33;2.40;;;1.53;;
44272;SDS011;29964;17.182;-96.766;2023-11-21T04:45:01;3.10;;;1.80;;
44272;SDS011;29964;17.182;-96.766;2023-11-21T04:47:30;4.23;;;2.13;;
44272;SDS011;29964;17.182;-96.766;2023-11-21T04:49:57;6.77;;;2.23;;
44272;SDS011;29964;17.182;-96.766;2023-11-21T04:52:23;2.33;;;1.73;;
44272;SDS011;29964;17.182;-96.766;2023-11-21T04:54:50;2.27;;;1.47;;
44272;SDS011;29964;17.182;-96.766;2023-11-21T04:57:20;2.23;;;1.50;;
44272;SDS011;29964;17.182;-96.766;2023-11-21T04:59:48;9.17;;;1.73;;
44272;SDS011;29964;17.182;-96.766;2023-11-21T05:02:15;5.03;;;2.37;;
44272;SDS011;29964;17.182;-96.766;2023-11-21T05:04:44;2.57;;;1.67;;
44272;SDS011;29964;17.182;-96.766;2023-11-21T05:07:11;2.77;;;1.80;;
44272;SDS011;29964;17.182;-96.766;2023-11-21T05:09:44;2.23;;;1.60;;
44272;SDS011;29964;17.182;-96.766;2023-11-21T05:12:12;4.33;;;2.30;;
44272;SDS011;29964;17.182;-96.766;2023-11-21T05:14:39;2.67;;;1.47;;
44272;SDS011;29964;17.182;-96.766;2023-11-21T05:17:07;7.83;;;1.63;;
44272;SDS011;29964;17.182;-96.766;2023-11-21T05:19:34;3.37;;;1.80;;
44272;SDS011;29964;17.182;-96.766;2023-11-21T05:22:00;3.67;;;1.23;;
44272;SDS011;29964;17.182;-96.766;2023-11-21T05:24:27;3.33;;;1.60;;
44272;SDS011;29964;17.182;-96.766;2023-11-21T05:26:54;1.83;;;1.27;;
44272;SDS011;29964;17.182;-96.766;2023-11-21T05:29:21;1.20;;;0.93;;
44272;SDS011;29964;17.182;-96.766;2023-11-21T05:31:48;1.40;;;1.10;;
44272;SDS011;29964;17.182;-96.766;2023-11-21T05:34:14;1.73;;;1.27;;
44272;SDS011;29964;17.182;-96.766;2023-11-21T05:36:42;1.07;;;0.80;;
44272;SDS011;29964;17.182;-96.766;2023-11-21T05:39:11;2.43;;;1.50;;
44272;SDS011;29964;17.182;-96.766;2023-11-21T05:41:37;4.17;;;1.50;;
44272;SDS011;29964;17.182;-96.766;2023-11-21T05:44:04;1.43;;;1.20;;
44272;SDS011;29964;17.182;-96.766;2023-11-21T05:46:31;3.77;;;1.27;;
44272;SDS011;29964;17.182;-96.766;2023-11-21T05:48:57;2.23;;;1.63;;
44272;SDS011;29964;17.182;-96.766;2023-11-21T05:51:24;1.90;;;1.40;;
44272;SDS011;29964;17.182;-96.766;2023-11-21T05:53:51;2.73;;;1.60;;
44272;SDS011;29964;17.182;-96.766;2023-11-21T05:56:18;0.77;;;0.73;;
44272;SDS011;29964;17.182;-96.766;2023-11-21T05:58:44;2.30;;;1.77;;
44272;SDS011;29964;17.182;-96.766;2023-11-21T06:01:11;1.90;;;1.40;;
44272;SDS011;29964;17.182;-96.766;2023-11-21T06:03:38;3.17;;;1.70;;
44272;SDS011;29964;17.182;-96.766;2023-11-21T06:06:05;1.57;;;1.17;;
44272;SDS011;29964;17.182;-96.766;2023-11-21T06:08:32;2.20;;;1.57;;
44272;SDS011;29964;17.182;-96.766;2023-11-21T06:10:58;1.63;;;1.30;;
44272;SDS011;29964;17.182;-96.766;2023-11-21T06:13:26;2.33;;;1.50;;
44272;SDS011;29964;17.182;-96.766;2023-11-21T06:15:53;2.13;;;1.50;;
44272;SDS011;29964;17.182;-96.766;2023-11-21T06:18:20;4.10;;;2.17;;
44272;SDS011;29964;17.182;-96.766;2023-11-21T06:20:47;0.70;;;0.70;;
44272;SDS011;29964;17.182;-96.766;2023-11-21T06:23:13;4.10;;;1.80;;
44272;SDS011;29964;17.182;-96.766;2023-11-21T06:25:41;1.63;;;1.13;;
44272;SDS011;29964;17.182;-96.766;2023-11-21T06:28:08;3.10;;;1.50;;
44272;SDS011;29964;17.182;-96.766;2023-11-21T06:30:35;2.03;;;1.50;;
44272;SDS011;29964;17.182;-96.766;2023-11-21T06:33:02;2.00;;;1.57;;
44272;SDS011;29964;17.182;-96.766;2023-11-21T06:35:29;3.67;;;1.77;;
44272;SDS011;29964;17.182;-96.766;2023-11-21T06:37:59;1.63;;;1.10;;
44272;SDS011;29964;17.182;-96.766;2023-11-21T06:40:28;2.93;;;1.83;;
44272;SDS011;29964;17.182;-96.766;2023-11-21T06:42:55;1.87;;;1.30;;
44272;SDS011;29964;17.182;-96.766;2023-11-21T06:45:24;2.20;;;1.63;;
44272;SDS011;29964;17.182;-96.766;2023-11-21T06:47:50;1.60;;;1.20;;
44272;SDS011;29964;17.182;-96.766;2023-11-21T06:50:17;2.13;;;1.53;;
44272;SDS011;29964;17.182;-96.766;2023-11-21T06:52:44;3.60;;;1.70;;
44272;SDS011;29964;17.182;-96.766;2023-11-21T06:55:10;3.17;;;1.53;;
44272;SDS011;29964;17.182;-96.766;2023-11-21T06:57:37;6.87;;;1.77;;
44272;SDS011;29964;17.182;-96.766;2023-11-21T07:00:04;1.43;;;1.10;;
44272;SDS011;29964;17.182;-96.766;2023-11-21T07:02:31;1.37;;;0.97;;
44272;SDS011;29964;17.182;-96.766;2023-11-21T07:04:58;2.37;;;1.70;;
44272;SDS011;29964;17.182;-96.766;2023-11-21T07:07:25;2.23;;;1.40;;
44272;SDS011;29964;17.182;-96.766;2023-11-21T07:09:52;2.27;;;1.50;;
44272;SDS011;29964;17.182;-96.766;2023-11-21T07:12:18;1.27;;;1.07;;
44272;SDS011;29964;17.182;-96.766;2023-11-21T07:14:49;3.40;;;1.83;;
44272;SDS011;29964;17.182;-96.766;2023-11-21T07:17:15;2.90;;;1.90;;
44272;SDS011;29964;17.182;-96.766;2023-11-21T07:19:42;1.40;;;1.13;;
44272;SDS011;29964;17.182;-96.766;2023-11-21T07:22:09;3.07;;;1.10;;
44272;SDS011;29964;17.182;-96.766;2023-11-21T07:24:36;3.77;;;1.97;;
44272;SDS011;29964;17.182;-96.766;2023-11-21T07:27:03;1.87;;;1.40;;
44272;SDS011;29964;17.182;-96.766;2023-11-21T07:29:30;4.57;;;1.47;;
44272;SDS011;29964;17.182;-96.766;2023-11-21T07:31:56;1.73;;;1.50;;
44272;SDS011;29964;17.182;-96.766;2023-11-21T07:34:23;3.97;;;2.13;;
44272;SDS011;29964;17.182;-96.766;2023-11-21T07:36:50;3.17;;;1.90;;
44272;SDS011;29964;17.182;-96.766;2023-11-21T07:39:17;2.03;;;1.57;;
44272;SDS011;29964;17.182;-96.766;2023-11-21T07:41:43;1.77;;;1.33;;
44272;SDS011;29964;17.182;-96.766;2023-11-21T07:44:14;2.00;;;1.20;;
44272;SDS011;29964;17.182;-96.766;2023-11-21T07:46:41;2.50;;;1.60;;
44272;SDS011;29964;17.182;-96.766;2023-11-21T07:49:08;3.27;;;1.53;;
44272;SDS011;29964;17.182;-96.766;2023-11-21T07:51:34;2.37;;;1.67;;
44272;SDS011;29964;17.182;-96.766;2023-11-21T07:54:01;2.03;;;1.50;;
44272;SDS011;29964;17.182;-96.766;2023-11-21T07:56:27;4.43;;;1.90;;
44272;SDS011;29964;17.182;-96.766;2023-11-21T07:58:54;2.67;;;1.70;;
44272;SDS011;29964;17.182;-96.766;2023-11-21T08:01:21;12.97;;;1.60;;
44272;SDS011;29964;17.182;-96.766;2023-11-21T08:03:48;1.50;;;1.10;;
44272;SDS011;29964;17.182;-96.766;2023-11-21T08:06:18;2.57;;;1.13;;
44272;SDS011;29964;17.182;-96.766;2023-11-21T08:08:44;1.87;;;1.37;;
44272;SDS011;29964;17.182;-96.766;2023-11-21T08:11:11;2.83;;;1.80;;
44272;SDS011;29964;17.182;-96.766;2023-11-21T08:13:38;3.10;;;1.93;;
44272;SDS011;29964;17.182;-96.766;2023-11-21T08:16:05;2.37;;;1.63;;
44272;SDS011;29964;17.182;-96.766;2023-11-21T08:18:34;1.37;;;1.17;;
44272;SDS011;29964;17.182;-96.766;2023-11-21T08:21:06;2.87;;;1.60;;
44272;SDS011;29964;17.182;-96.766;2023-11-21T08:23:37;2.17;;;1.30;;
44272;SDS011;29964;17.182;-96.766;2023-11-21T08:26:11;7.57;;;2.05;;
44272;SDS011;29964;17.182;-96.766;2023-11-21T08:28:38;2.87;;;1.10;;
44272;SDS011;29964;17.182;-96.766;2023-11-21T08:31:05;1.57;;;1.27;;
44272;SDS011;29964;17.182;-96.766;2023-11-21T08:33:32;1.37;;;0.97;;
44272;SDS011;29964;17.182;-96.766;2023-11-21T08:35:59;1.87;;;1.30;;
44272;SDS011;29964;17.182;-96.766;2023-11-21T08:38:26;2.67;;;1.57;;
44272;SDS011;29964;17.182;-96.766;2023-11-21T08:40:54;2.90;;;1.70;;
44272;SDS011;29964;17.182;-96.766;2023-11-21T08:43:20;3.37;;;2.00;;
44272;SDS011;29964;17.182;-96.766;2023-11-21T08:45:47;3.63;;;2.10;;
44272;SDS011;29964;17.182;-96.766;2023-11-21T08:48:14;4.07;;;2.40;;
44272;SDS011;29964;17.182;-96.766;2023-11-21T08:50:41;3.43;;;2.33;;
44272;SDS011;29964;17.182;-96.766;2023-11-21T08:53:07;5.77;;;1.57;;
44272;SDS011;29964;17.182;-96.766;2023-11-21T08:55:36;2.37;;;1.80;;
44272;SDS011;29964;17.182;-96.766;2023-11-21T08:58:03;2.77;;;1.73;;
44272;SDS011;29964;17.182;-96.766;2023-11-21T09:00:31;2.07;;;1.40;;
44272;SDS011;29964;17.182;-96.766;2023-11-21T09:02:58;2.87;;;1.90;;
44272;SDS011;29964;17.182;-96.766;2023-11-21T09:05:25;5.47;;;2.00;;
44272;SDS011;29964;17.182;-96.766;2023-11-21T09:07:51;5.23;;;1.73;;
44272;SDS011;29964;17.182;-96.766;2023-11-21T09:10:18;1.93;;;1.50;;
44272;SDS011;29964;17.182;-96.766;2023-11-21T09:12:46;1.73;;;1.10;;
44272;SDS011;29964;17.182;-96.766;2023-11-21T09:15:12;1.70;;;1.47;;
44272;SDS011;29964;17.182;-96.766;2023-11-21T09:17:40;8.93;;;1.37;;
44272;SDS011;29964;17.182;-96.766;2023-11-21T09:20:08;3.67;;;1.90;;
44272;SDS011;29964;17.182;-96.766;2023-11-21T09:22:35;3.27;;;1.37;;
44272;SDS011;29964;17.182;-96.766;2023-11-21T09:25:02;2.37;;;1.87;;
44272;SDS011;29964;17.182;-96.766;2023-11-21T09:27:34;8.03;;;1.80;;
44272;SDS011;29964;17.182;-96.766;2023-11-21T09:30:01;2.87;;;1.70;;
44272;SDS011;29964;17.182;-96.766;2023-11-21T09:32:30;2.10;;;1.50;;
44272;SDS011;29964;17.182;-96.766;2023-11-21T09:34:57;2.17;;;1.50;;
44272;SDS011;29964;17.182;-96.766;2023-11-21T09:37:24;3.53;;;2.23;;
44272;SDS011;29964;17.182;-96.766;2023-11-21T09:39:52;5.73;;;3.33;;
44272;SDS011;29964;17.182;-96.766;2023-11-21T09:42:30;4.63;;;2.80;;
44272;SDS011;29964;17.182;-96.766;2023-11-21T09:45:10;4.90;;;2.67;;
44272;SDS011;29964;17.182;-96.766;2023-11-21T09:47:38;3.03;;;2.00;;
44272;SDS011;29964;17.182;-96.766;2023-11-21T09:50:05;3.10;;;2.23;;
44272;SDS011;29964;17.182;-96.766;2023-11-21T09:52:39;4.73;;;2.20;;
44272;SDS011;29964;17.182;-96.766;2023-11-21T09:55:10;3.00;;;2.07;;
44272;SDS011;29964;17.182;-96.766;2023-11-21T09:57:40;2.90;;;2.20;;
44272;SDS011;29964;17.182;-96.766;2023-11-21T10:00:08;5.23;;;2.30;;
44272;SDS011;29964;17.182;-96.766;2023-11-21T10:02:37;4.03;;;2.50;;
44272;SDS011;29964;17.182;-96.766;2023-11-21T10:05:06;3.30;;;2.43;;
44272;SDS011;29964;17.182;-96.766;2023-11-21T10:07:35;3.70;;;2.60;;
44272;SDS011;29964;17.182;-96.766;2023-11-21T10:10:01;5.70;;;2.60;;
44272;SDS011;29964;17.182;-96.766;2023-11-21T10:12:28;3.83;;;2.53;;
44272;SDS011;29964;17.182;-96.766;2023-11-21T10:14:55;3.93;;;2.43;;
44272;SDS011;29964;17.182;-96.766;2023-11-21T10:17:23;4.93;;;1.83;;
44272;SDS011;29964;17.182;-96.766;2023-11-21T10:19:52;4.87;;;2.93;;
44272;SDS011;29964;17.182;-96.766;2023-11-21T10:22:21;4.50;;;2.50;;
44272;SDS011;29964;17.182;-96.766;2023-11-21T10:24:50;4.27;;;2.33;;
44272;SDS011;29964;17.182;-96.766;2023-11-21T10:30:04;5.57;;;2.50;;
44272;SDS011;29964;17.182;-96.766;2023-11-21T10:32:30;4.57;;;2.23;;
44272;SDS011;29964;17.182;-96.766;2023-11-21T10:34:58;4.97;;;2.17;;
44272;SDS011;29964;17.182;-96.766;2023-11-21T10:37:32;1.90;;;1.50;;
44272;SDS011;29964;17.182;-96.766;2023-11-21T10:39:59;6.33;;;2.80;;
44272;SDS011;29964;17.182;-96.766;2023-11-21T10:42:25;3.43;;;2.27;;
44272;SDS011;29964;17.182;-96.766;2023-11-21T10:44:53;3.63;;;2.23;;
44272;SDS011;29964;17.182;-96.766;2023-11-21T10:47:19;3.37;;;2.30;;
44272;SDS011;29964;17.182;-96.766;2023-11-21T10:49:51;3.67;;;2.30;;
44272;SDS011;29964;17.182;-96.766;2023-11-21T10:52:21;2.00;;;1.60;;
44272;SDS011;29964;17.182;-96.766;2023-11-21T10:54:48;3.13;;;2.00;;
44272;SDS011;29964;17.182;-96.766;2023-11-21T10:57:17;4.27;;;2.00;;
44272;SDS011;29964;17.182;-96.766;2023-11-21T10:59:46;7.13;;;2.13;;
44272;SDS011;29964;17.182;-96.766;2023-11-21T11:02:24;6.93;;;2.87;;
44272;SDS011;29964;17.182;-96.766;2023-11-21T11:04:55;2.87;;;1.93;;
44272;SDS011;29964;17.182;-96.766;2023-11-21T11:07:26;5.23;;;2.13;;
44272;SDS011;29964;17.182;-96.766;2023-11-21T11:09:58;2.37;;;1.70;;
44272;SDS011;29964;17.182;-96.766;2023-11-21T11:12:25;4.20;;;2.17;;
44272;SDS011;29964;17.182;-96.766;2023-11-21T11:14:53;5.20;;;2.33;;
44272;SDS011;29964;17.182;-96.766;2023-11-21T11:17:21;4.27;;;2.23;;
44272;SDS011;29964;17.182;-96.766;2023-11-21T11:19:48;1.93;;;1.40;;
44272;SDS011;29964;17.182;-96.766;2023-11-21T11:25:08;3.03;;;2.07;;
44272;SDS011;29964;17.182;-96.766;2023-11-21T11:27:47;2.10;;;1.58;;
44272;SDS011;29964;17.182;-96.766;2023-11-21T11:32:57;3.73;;;2.47;;
44272;SDS011;29964;17.182;-96.766;2023-11-21T11:35:34;3.73;;;2.30;;
44272;SDS011;29964;17.182;-96.766;2023-11-21T11:38:04;1.90;;;1.53;;
44272;SDS011;29964;17.182;-96.766;2023-11-21T11:40:41;3.67;;;1.93;;
44272;SDS011;29964;17.182;-96.766;2023-11-21T11:43:11;5.23;;;2.13;;
44272;SDS011;29964;17.182;-96.766;2023-11-21T11:45:37;2.40;;;1.63;;
44272;SDS011;29964;17.182;-96.766;2023-11-21T11:48:08;2.97;;;1.67;;
44272;SDS011;29964;17.182;-96.766;2023-11-21T11:50:41;3.10;;;2.43;;
44272;SDS011;29964;17.182;-96.766;2023-11-21T11:53:12;4.47;;;2.60;;
44272;SDS011;29964;17.182;-96.766;2023-11-21T11:55:39;2.73;;;2.20;;
44272;SDS011;29964;17.182;-96.766;2023-11-21T11:58:06;3.57;;;2.70;;
44272;SDS011;29964;17.182;-96.766;2023-11-21T12:00:36;4.07;;;2.50;;
44272;SDS011;29964;17.182;-96.766;2023-11-21T12:03:06;4.13;;;2.57;;
44272;SDS011;29964;17.182;-96.766;2023-11-21T12:05:33;3.47;;;2.60;;
44272;SDS011;29964;17.182;-96.766;2023-11-21T12:08:04;2.20;;;1.87;;
44272;SDS011;29964;17.182;-96.766;2023-11-21T12:10:35;7.53;;;2.30;;
44272;SDS011;29964;17.182;-96.766;2023-11-21T12:13:06;2.90;;;2.10;;
44272;SDS011;29964;17.182;-96.766;2023-11-21T12:15:36;5.13;;;2.57;;
44272;SDS011;29964;17.182;-96.766;2023-11-21T12:18:03;6.50;;;3.83;;
44272;SDS011;29964;17.182;-96.766;2023-11-21T12:20:31;6.67;;;3.67;;
44272;SDS011;29964;17.182;-96.766;2023-11-21T12:22:58;3.00;;;2.40;;
44272;SDS011;29964;17.182;-96.766;2023-11-21T12:25:26;5.63;;;3.13;;
44272;SDS011;29964;17.182;-96.766;2023-11-21T12:28:00;6.13;;;3.47;;
44272;SDS011;29964;17.182;-96.766;2023-11-21T12:30:31;6.33;;;2.73;;
44272;SDS011;29964;17.182;-96.766;2023-11-21T12:32:59;5.37;;;2.70;;
44272;SDS011;29964;17.182;-96.766;2023-11-21T12:35:29;3.07;;;2.60;;
44272;SDS011;29964;17.182;-96.766;2023-11-21T12:37:59;2.67;;;2.43;;
44272;SDS011;29964;17.182;-96.766;2023-11-21T12:40:28;5.10;;;3.20;;
44272;SDS011;29964;17.182;-96.766;2023-11-21T12:42:55;13.17;;;2.87;;
44272;SDS011;29964;17.182;-96.766;2023-11-21T12:45:23;3.53;;;2.73;;
44272;SDS011;29964;17.182;-96.766;2023-11-21T12:48:03;5.53;;;3.50;;
44272;SDS011;29964;17.182;-96.766;2023-11-21T12:50:33;2.73;;;2.23;;
44272;SDS011;29964;17.182;-96.766;2023-11-21T12:53:03;4.30;;;2.67;;
44272;SDS011;29964;17.182;-96.766;2023-11-21T12:55:31;3.53;;;2.80;;
44272;SDS011;29964;17.182;-96.766;2023-11-21T12:58:05;5.15;;;3.20;;
44272;SDS011;29964;17.182;-96.766;2023-11-21T13:00:39;4.43;;;2.97;;
44272;SDS011;29964;17.182;-96.766;2023-11-21T13:03:08;4.27;;;2.63;;
44272;SDS011;29964;17.182;-96.766;2023-11-21T13:05:38;5.33;;;2.90;;
44272;SDS011;29964;17.182;-96.766;2023-11-21T13:08:05;5.30;;;3.23;;
44272;SDS011;29964;17.182;-96.766;2023-11-21T13:10:34;5.33;;;2.30;;
44272;SDS011;29964;17.182;-96.766;2023-11-21T13:13:02;5.27;;;3.00;;
44272;SDS011;29964;17.182;-96.766;2023-11-21T13:15:31;8.80;;;3.23;;
44272;SDS011;29964;17.182;-96.766;2023-11-21T13:17:58;3.33;;;2.43;;
44272;SDS011;29964;17.182;-96.766;2023-11-21T13:20:25;6.13;;;3.00;;
44272;SDS011;29964;17.182;-96.766;2023-11-21T13:22:58;3.23;;;2.53;;
44272;SDS011;29964;17.182;-96.766;2023-11-21T13:25:26;5.28;;;3.13;;
44272;SDS011;29964;17.182;-96.766;2023-11-21T13:27:54;5.13;;;2.93;;
44272;SDS011;29964;17.182;-96.766;2023-11-21T13:30:20;4.93;;;2.90;;
44272;SDS011;29964;17.182;-96.766;2023-11-21T13:32:52;6.30;;;3.20;;
44272;SDS011;29964;17.182;-96.766;2023-11-21T13:35:22;4.07;;;2.67;;
44272;SDS011;29964;17.182;-96.766;2023-11-21T13:38:12;6.83;;;3.03;;
44272;SDS011;29964;17.182;-96.766;2023-11-21T13:40:46;5.40;;;4.17;;
44272;SDS011;29964;17.182;-96.766;2023-11-21T13:43:15;5.17;;;3.53;;
44272;SDS011;29964;17.182;-96.766;2023-11-21T13:45:44;4.57;;;3.37;;
44272;SDS011;29964;17.182;-96.766;2023-11-21T13:48:11;4.97;;;3.37;;
44272;SDS011;29964;17.182;-96.766;2023-11-21T13:50:50;4.13;;;3.37;;
44272;SDS011;29964;17.182;-96.766;2023-11-21T13:53:35;4.68;;;3.15;;
44272;SDS011;29964;17.182;-96.766;2023-11-21T13:56:04;28.23;;;3.30;;
44272;SDS011;29964;17.182;-96.766;2023-11-21T13:58:30;10.50;;;3.27;;
44272;SDS011;29964;17.182;-96.766;2023-11-21T14:01:10;12.83;;;3.37;;
44272;SDS011;29964;17.182;-96.766;2023-11-21T14:04:04;4.80;;;2.97;;
44272;SDS011;29964;17.182;-96.766;2023-11-21T14:06:48;5.03;;;2.90;;
44272;SDS011;29964;17.182;-96.766;2023-11-21T14:09:17;3.67;;;2.77;;
44272;SDS011;29964;17.182;-96.766;2023-11-21T14:12:01;3.22;;;2.35;;
44272;SDS011;29964;17.182;-96.766;2023-11-21T14:14:31;8.20;;;3.40;;
44272;SDS011;29964;17.182;-96.766;2023-11-21T14:16:59;5.87;;;2.93;;
44272;SDS011;29964;17.182;-96.766;2023-11-21T14:19:27;4.33;;;2.93;;
44272;SDS011;29964;17.182;-96.766;2023-11-21T14:21:57;2.83;;;2.17;;
44272;SDS011;29964;17.182;-96.766;2023-11-21T14:24:24;3.47;;;2.37;;
44272;SDS011;29964;17.182;-96.766;2023-11-21T14:26:51;5.80;;;3.03;;
44272;SDS011;29964;17.182;-96.766;2023-11-21T14:29:18;4.60;;;3.27;;
44272;SDS011;29964;17.182;-96.766;2023-11-21T14:31:45;6.97;;;2.90;;
44272;SDS011;29964;17.182;-96.766;2023-11-21T14:34:12;3.80;;;2.40;;
44272;SDS011;29964;17.182;-96.766;2023-11-21T14:36:40;4.33;;;2.93;;